Terminal Aerodrome Forecast
Issued by NWS Chicago, IL

Home | Current Version | Previous Version | Graphics & Text | Print | Product List | Glossary On
Versions: 1 2 3 4 5 6 7 8 9 10 11 12 13 14 15 16 17 18 19 20 21 22 23 24 25 26 27 28 29 30 31 32 33 34 35 36 37
000
FTUS43 KLOT 171700
TAFRFD
TAF
KRFD 171725Z 1718/1818 06008KT P6SM SCT010 BKN018
     FM172000 07008KT P6SM SCT015 BKN025
     FM180300 07005KT P6SM SCT025
     FM180600 07003KT 3SM BR BKN015
      TEMPO 1809/1813 1/2SM FG VV002
     FM181500 16005KT P6SM SCT015 BKN022=

USA.gov is the U.S. government's official web portal to all federal, state and local government web resources and services.